sensor_id;sensor_type;location;lat;lon;timestamp;pressure;altitude;pressure_sealevel;temperature;humidity
74913;BME280;63878;55.624;37.304;2023-07-29T00:04:15;98027.28;;;11.94;71.99
74913;BME280;63878;55.624;37.304;2023-07-29T00:14:15;98063.81;;;11.91;72.77
74913;BME280;63878;55.624;37.304;2023-07-29T00:24:16;98057.25;;;11.62;73.35
74913;BME280;63878;55.624;37.304;2023-07-29T00:34:17;98020.97;;;11.23;74.61
74913;BME280;63878;55.624;37.304;2023-07-29T00:44:17;98025.75;;;11.28;73.98
74913;BME280;63878;55.624;37.304;2023-07-29T00:54:18;98013.34;;;11.37;73.48
74913;BME280;63878;55.624;37.304;2023-07-29T01:04:19;97996.06;;;11.26;74.13
74913;BME280;63878;55.624;37.304;2023-07-29T01:14:45;97990.06;;;11.40;74.04
74913;BME280;63878;55.624;37.304;2023-07-29T01:24:46;97979.16;;;11.43;73.64
74913;BME280;63878;55.624;37.304;2023-07-29T01:45:14;98003.31;;;11.16;74.47
74913;BME280;63878;55.624;37.304;2023-07-29T01:55:15;98003.78;;;11.35;73.68
74913;BME280;63878;55.624;37.304;2023-07-29T02:05:16;98016.97;;;11.52;74.02
74913;BME280;63878;55.624;37.304;2023-07-29T02:15:16;98021.28;;;11.37;74.76
74913;BME280;63878;55.624;37.304;2023-07-29T02:25:17;98041.13;;;11.16;76.14
74913;BME280;63878;55.624;37.304;2023-07-29T02:35:17;98045.56;;;11.40;75.34
74913;BME280;63878;55.624;37.304;2023-07-29T02:45:18;98033.53;;;11.13;75.96
74913;BME280;63878;55.624;37.304;2023-07-29T02:55:19;98005.00;;;10.92;76.81
74913;BME280;63878;55.624;37.304;2023-07-29T03:05:19;97988.81;;;11.12;77.00
74913;BME280;63878;55.624;37.304;2023-07-29T03:15:23;97974.13;;;11.01;77.14
74913;BME280;63878;55.624;37.304;2023-07-29T03:25:23;97971.16;;;10.96;76.95
74913;BME280;63878;55.624;37.304;2023-07-29T03:35:24;97977.63;;;10.85;78.35
74913;BME280;63878;55.624;37.304;2023-07-29T03:45:24;97950.06;;;10.79;78.04
74913;BME280;63878;55.624;37.304;2023-07-29T03:55:25;97926.28;;;10.71;77.95
74913;BME280;63878;55.624;37.304;2023-07-29T04:05:25;97948.72;;;11.00;77.42
74913;BME280;63878;55.624;37.304;2023-07-29T04:15:26;97934.88;;;10.73;78.18
74913;BME280;63878;55.624;37.304;2023-07-29T04:25:27;97928.78;;;10.81;78.20
74913;BME280;63878;55.624;37.304;2023-07-29T04:35:28;97932.91;;;10.67;79.32
74913;BME280;63878;55.624;37.304;2023-07-29T04:45:29;97952.53;;;10.73;78.56
74913;BME280;63878;55.624;37.304;2023-07-29T04:55:30;97954.16;;;10.90;76.53
74913;BME280;63878;55.624;37.304;2023-07-29T05:05:31;97939.97;;;10.83;77.96
74913;BME280;63878;55.624;37.304;2023-07-29T05:15:31;97910.09;;;10.91;77.19
74913;BME280;63878;55.624;37.304;2023-07-29T05:25:32;97939.97;;;10.83;77.56
74913;BME280;63878;55.624;37.304;2023-07-29T05:35:33;97924.28;;;10.90;77.73
74913;BME280;63878;55.624;37.304;2023-07-29T05:45:33;97927.25;;;10.95;77.29
74913;BME280;63878;55.624;37.304;2023-07-29T05:55:34;97907.66;;;10.81;77.12
74913;BME280;63878;55.624;37.304;2023-07-29T06:05:34;97921.13;;;11.02;77.00
74913;BME280;63878;55.624;37.304;2023-07-29T06:15:35;97943.97;;;10.79;78.31
74913;BME280;63878;55.624;37.304;2023-07-29T06:25:35;97959.78;;;10.87;77.46
74913;BME280;63878;55.624;37.304;2023-07-29T06:35:36;97987.81;;;10.88;78.78
74913;BME280;63878;55.624;37.304;2023-07-29T06:45:36;97988.94;;;11.26;77.39
74913;BME280;63878;55.624;37.304;2023-07-29T06:55:37;97986.59;;;11.31;78.51
74913;BME280;63878;55.624;37.304;2023-07-29T07:05:37;97988.81;;;11.03;79.26
74913;BME280;63878;55.624;37.304;2023-07-29T07:15:38;98000.53;;;10.93;78.72
74913;BME280;63878;55.624;37.304;2023-07-29T07:25:39;98004.66;;;11.03;78.66
74913;BME280;63878;55.624;37.304;2023-07-29T07:35:39;97994.56;;;11.15;79.12
74913;BME280;63878;55.624;37.304;2023-07-29T07:45:40;97999.19;;;11.13;80.39
74913;BME280;63878;55.624;37.304;2023-07-29T07:55:41;98006.28;;;11.21;78.85
74913;BME280;63878;55.624;37.304;2023-07-29T08:05:41;98002.97;;;11.35;78.94
74913;BME280;63878;55.624;37.304;2023-07-29T08:15:46;98003.47;;;10.98;79.74
74913;BME280;63878;55.624;37.304;2023-07-29T08:25:52;97998.63;;;12.06;75.64
74913;BME280;63878;55.624;37.304;2023-07-29T08:35:53;97999.28;;;11.60;76.29
74913;BME280;63878;55.624;37.304;2023-07-29T08:45:54;98006.06;;;11.47;74.42
74913;BME280;63878;55.624;37.304;2023-07-29T08:55:54;97997.41;;;11.69;74.63
74913;BME280;63878;55.624;37.304;2023-07-29T09:05:56;97982.91;;;11.65;74.32
74913;BME280;63878;55.624;37.304;2023-07-29T09:15:57;97993.47;;;11.57;75.44
74913;BME280;63878;55.624;37.304;2023-07-29T09:26:02;97996.53;;;11.21;73.88
74913;BME280;63878;55.624;37.304;2023-07-29T09:36:08;98013.69;;;11.42;74.22
74913;BME280;63878;55.624;37.304;2023-07-29T09:46:09;98029.50;;;11.66;73.65
74913;BME280;63878;55.624;37.304;2023-07-29T09:56:10;98009.31;;;11.81;72.16
74913;BME280;63878;55.624;37.304;2023-07-29T10:06:11;98019.63;;;12.07;72.67
74913;BME280;63878;55.624;37.304;2023-07-29T10:16:12;98026.03;;;12.13;72.19
74913;BME280;63878;55.624;37.304;2023-07-29T10:26:13;98024.34;;;12.97;68.33
74913;BME280;63878;55.624;37.304;2023-07-29T10:36:17;98007.66;;;12.42;69.26
74913;BME280;63878;55.624;37.304;2023-07-29T10:46:20;98025.44;;;12.57;70.25
74913;BME280;63878;55.624;37.304;2023-07-29T10:56:34;98009.63;;;12.17;72.97
74913;BME280;63878;55.624;37.304;2023-07-29T11:17:05;98019.16;;;13.41;68.68
74913;BME280;63878;55.624;37.304;2023-07-29T11:27:05;98036.66;;;13.13;69.72
74913;BME280;63878;55.624;37.304;2023-07-29T11:37:06;98032.66;;;12.94;69.33
74913;BME280;63878;55.624;37.304;2023-07-29T11:47:11;98044.84;;;13.03;67.84
74913;BME280;63878;55.624;37.304;2023-07-29T11:57:12;98032.44;;;12.81;67.92
74913;BME280;63878;55.624;37.304;2023-07-29T12:07:17;98045.97;;;13.09;67.58
74913;BME280;63878;55.624;37.304;2023-07-29T12:17:18;98045.59;;;13.12;67.51
74913;BME280;63878;55.624;37.304;2023-07-29T12:27:21;98035.25;;;13.02;68.09
74913;BME280;63878;55.624;37.304;2023-07-29T12:37:31;98030.66;;;12.42;69.59
74913;BME280;63878;55.624;37.304;2023-07-29T12:47:32;98033.00;;;12.68;68.88
74913;BME280;63878;55.624;37.304;2023-07-29T12:57:32;98033.13;;;12.97;67.95
74913;BME280;63878;55.624;37.304;2023-07-29T13:07:33;98028.56;;;13.29;65.09
74913;BME280;63878;55.624;37.304;2023-07-29T13:17:34;98037.50;;;13.28;64.63
74913;BME280;63878;55.624;37.304;2023-07-29T13:27:34;98026.41;;;13.62;64.52
74913;BME280;63878;55.624;37.304;2023-07-29T13:37:35;98024.97;;;13.22;63.34
74913;BME280;63878;55.624;37.304;2023-07-29T13:47:36;98010.53;;;12.87;63.80
74913;BME280;63878;55.624;37.304;2023-07-29T13:57:38;98000.63;;;13.04;64.55
74913;BME280;63878;55.624;37.304;2023-07-29T14:07:38;98019.88;;;12.97;63.67
74913;BME280;63878;55.624;37.304;2023-07-29T14:17:39;98007.91;;;13.39;61.83
74913;BME280;63878;55.624;37.304;2023-07-29T14:27:40;98013.56;;;13.51;62.38
74913;BME280;63878;55.624;37.304;2023-07-29T14:37:40;98005.63;;;13.51;63.38
74913;BME280;63878;55.624;37.304;2023-07-29T14:47:40;98005.00;;;13.64;63.53
74913;BME280;63878;55.624;37.304;2023-07-29T14:57:41;97983.13;;;13.91;63.26
74913;BME280;63878;55.624;37.304;2023-07-29T15:07:42;98010.41;;;13.70;64.01
74913;BME280;63878;55.624;37.304;2023-07-29T15:17:42;97990.16;;;14.14;62.32
74913;BME280;63878;55.624;37.304;2023-07-29T15:27:43;97991.84;;;13.85;63.50
74913;BME280;63878;55.624;37.304;2023-07-29T15:37:43;97998.97;;;13.99;62.40
74913;BME280;63878;55.624;37.304;2023-07-29T15:47:44;98007.75;;;13.85;63.43
74913;BME280;63878;55.624;37.304;2023-07-29T15:57:44;98011.22;;;13.86;62.72
74913;BME280;63878;55.624;37.304;2023-07-29T16:07:45;98009.66;;;13.62;62.92
74913;BME280;63878;55.624;37.304;2023-07-29T16:17:45;98012.06;;;13.71;63.03
74913;BME280;63878;55.624;37.304;2023-07-29T16:27:46;98018.22;;;13.87;62.70
74913;BME280;63878;55.624;37.304;2023-07-29T16:37:47;98012.97;;;14.08;62.05
74913;BME280;63878;55.624;37.304;2023-07-29T16:47:47;98020.28;;;14.42;60.42
74913;BME280;63878;55.624;37.304;2023-07-29T16:57:48;98028.81;;;14.38;61.00
74913;BME280;63878;55.624;37.304;2023-07-29T17:07:49;98027.72;;;14.32;61.38
74913;BME280;63878;55.624;37.304;2023-07-29T17:17:50;98032.78;;;14.27;61.59
74913;BME280;63878;55.624;37.304;2023-07-29T17:27:51;98028.22;;;14.21;62.46
74913;BME280;63878;55.624;37.304;2023-07-29T17:37:51;98029.31;;;14.12;62.93
74913;BME280;63878;55.624;37.304;2023-07-29T17:47:52;98029.06;;;13.92;62.94
74913;BME280;63878;55.624;37.304;2023-07-29T17:57:52;98044.63;;;13.80;62.83
74913;BME280;63878;55.624;37.304;2023-07-29T18:07:53;98015.78;;;13.62;64.05
74913;BME280;63878;55.624;37.304;2023-07-29T18:17:53;98038.13;;;13.68;64.42
74913;BME280;63878;55.624;37.304;2023-07-29T18:27:54;98033.63;;;13.54;64.60
74913;BME280;63878;55.624;37.304;2023-07-29T18:37:54;98041.94;;;13.65;64.93
74913;BME280;63878;55.624;37.304;2023-07-29T18:47:55;98025.72;;;13.45;64.92
74913;BME280;63878;55.624;37.304;2023-07-29T18:57:56;98031.00;;;13.16;65.13
74913;BME280;63878;55.624;37.304;2023-07-29T19:07:57;98033.44;;;13.17;65.21
74913;BME280;63878;55.624;37.304;2023-07-29T19:17:57;98043.63;;;13.29;64.99
74913;BME280;63878;55.624;37.304;2023-07-29T19:27:58;98048.28;;;13.27;65.35
74913;BME280;63878;55.624;37.304;2023-07-29T19:37:58;98074.81;;;13.41;64.98
74913;BME280;63878;55.624;37.304;2023-07-29T19:47:59;98072.00;;;13.43;64.84
74913;BME280;63878;55.624;37.304;2023-07-29T19:58:00;98069.59;;;13.33;65.09
74913;BME280;63878;55.624;37.304;2023-07-29T20:08:00;98062.47;;;13.34;65.03
74913;BME280;63878;55.624;37.304;2023-07-29T20:18:01;98065.03;;;13.42;64.86
74913;BME280;63878;55.624;37.304;2023-07-29T20:28:01;98053.84;;;13.32;64.72
74913;BME280;63878;55.624;37.304;2023-07-29T20:38:02;98050.34;;;13.39;64.87
74913;BME280;63878;55.624;37.304;2023-07-29T20:48:02;98054.41;;;13.27;65.23
74913;BME280;63878;55.624;37.304;2023-07-29T20:58:03;98061.38;;;13.05;66.07
74913;BME280;63878;55.624;37.304;2023-07-29T21:08:04;98061.88;;;12.86;66.89
74913;BME280;63878;55.624;37.304;2023-07-29T21:18:04;98083.69;;;12.57;67.98
74913;BME280;63878;55.624;37.304;2023-07-29T21:28:05;98068.53;;;12.42;67.89
74913;BME280;63878;55.624;37.304;2023-07-29T21:38:05;98066.13;;;12.33;68.65
74913;BME280;63878;55.624;37.304;2023-07-29T21:48:06;98072.69;;;12.37;68.35
74913;BME280;63878;55.624;37.304;2023-07-29T21:58:07;98074.34;;;12.69;67.33
74913;BME280;63878;55.624;37.304;2023-07-29T22:08:08;98051.78;;;12.81;66.22
74913;BME280;63878;55.624;37.304;2023-07-29T22:18:08;98061.94;;;12.38;67.55
74913;BME280;63878;55.624;37.304;2023-07-29T22:28:09;98071.88;;;12.67;67.37
74913;BME280;63878;55.624;37.304;2023-07-29T22:38:09;98081.78;;;12.42;66.18
74913;BME280;63878;55.624;37.304;2023-07-29T22:48:10;98075.56;;;12.27;67.31
74913;BME280;63878;55.624;37.304;2023-07-29T22:58:11;98064.31;;;12.33;67.74
74913;BME280;63878;55.624;37.304;2023-07-29T23:08:12;98036.09;;;12.17;67.42
74913;BME280;63878;55.624;37.304;2023-07-29T23:18:13;98050.84;;;12.04;68.37
74913;BME280;63878;55.624;37.304;2023-07-29T23:28:13;98054.31;;;12.04;67.85
74913;BME280;63878;55.624;37.304;2023-07-29T23:38:14;98052.13;;;12.16;67.34
74913;BME280;63878;55.624;37.304;2023-07-29T23:48:15;98052.72;;;11.95;68.04
74913;BME280;63878;55.624;37.304;2023-07-29T23:58:15;98059.88;;;11.70;69.46
